Time;durP1;ratioP1;P1;durP2;ratioP2;P2;SDS_P1;SDS_P2;PMS_P1;PMS_P2;Temp;Humidity;BMP_temperature;BMP_pressure;BME280_temperature;BME280_humidity;BME280_pressure;Samples;Min_cycle;Max_cycle;Signal;HPM_P1;HPM_P2
2023/08/28 00:00:49;;;;;;;3.43;1.00;;;;;;;13.76;100.00;95492.78;4960382;28;24441;-74
2023/08/28 00:03:17;;;;;;;2.80;0.90;;;;;;;13.73;100.00;95490.41;4973382;28;24879;-75
2023/08/28 00:05:44;;;;;;;1.35;0.77;;;;;;;13.64;100.00;95476.34;4973247;28;24445;-74
2023/08/28 00:08:11;;;;;;;1.70;0.90;;;;;;;13.43;100.00;95476.28;4971017;28;24915;-74
2023/08/28 00:10:40;;;;;;;5.25;1.00;;;;;;;13.32;100.00;95466.72;4959253;28;24445;-74
2023/08/28 00:13:07;;;;;;;2.90;1.05;;;;;;;13.37;100.00;95461.16;4964081;28;24449;-74
2023/08/28 00:15:33;;;;;;;2.05;1.05;;;;;;;13.43;100.00;95462.44;4953691;28;24775;-74
2023/08/28 00:18:00;;;;;;;2.00;0.90;;;;;;;13.44;100.00;95466.69;4954403;28;24446;-74
2023/08/28 00:20:27;;;;;;;1.55;0.85;;;;;;;13.47;100.00;95469.88;4953812;29;24424;-74
2023/08/28 00:22:54;;;;;;;3.38;1.20;;;;;;;13.48;100.00;95470.72;4952511;28;24494;-74
2023/08/28 00:25:20;;;;;;;1.85;0.70;;;;;;;13.49;100.00;95461.94;4964257;28;24464;-74
2023/08/28 00:27:47;;;;;;;2.22;0.98;;;;;;;13.51;100.00;95449.66;4972616;28;24410;-74
2023/08/28 00:30:14;;;;;;;1.67;1.08;;;;;;;13.51;100.00;95440.06;4956815;28;24434;-74
2023/08/28 00:32:40;;;;;;;1.73;0.82;;;;;;;13.46;100.00;95452.63;4966161;28;24970;-73
2023/08/28 00:35:07;;;;;;;2.22;1.30;;;;;;;13.62;100.00;95470.44;4953536;28;24425;-73
2023/08/28 00:37:35;;;;;;;3.22;0.93;;;;;;;13.61;100.00;95467.94;4953573;28;24434;-74
2023/08/28 00:40:01;;;;;;;2.53;0.90;;;;;;;13.59;100.00;95473.28;4952886;28;24467;-74
2023/08/28 00:42:27;;;;;;;3.00;0.80;;;;;;;13.39;100.00;95474.06;4956754;28;24446;-75
2023/08/28 00:44:53;;;;;;;1.35;0.90;;;;;;;13.37;100.00;95500.16;4970985;28;24441;-74
2023/08/28 00:47:20;;;;;;;0.90;0.70;;;;;;;13.39;100.00;95500.06;4971149;28;24444;-73
2023/08/28 00:49:47;;;;;;;1.30;0.73;;;;;;;13.43;100.00;95498.88;4958839;28;24461;-74
2023/08/28 00:52:14;;;;;;;3.45;1.25;;;;;;;13.43;100.00;95486.69;4968928;28;24438;-74
2023/08/28 00:54:42;;;;;;;3.95;1.15;;;;;;;13.46;100.00;95475.19;4968228;28;24438;-74
2023/08/28 00:57:10;;;;;;;2.70;1.10;;;;;;;13.48;100.00;95475.91;4953431;28;24434;-73
2023/08/28 00:59:37;;;;;;;2.40;1.02;;;;;;;13.30;100.00;95467.78;4964656;28;24433;-74
2023/08/28 01:02:04;;;;;;;2.47;1.10;;;;;;;13.27;100.00;95465.41;4971749;28;24440;-74
2023/08/28 01:04:31;;;;;;;3.40;0.93;;;;;;;13.13;100.00;95463.88;4956405;28;24442;-74
2023/08/28 01:07:07;;;;;;;2.00;0.90;;;;;;;12.96;100.00;95464.34;4965937;28;24460;-73
2023/08/28 01:09:41;;;;;;;1.20;0.85;;;;;;;13.01;100.00;95472.59;4963680;28;24441;-73
2023/08/28 01:12:17;;;;;;;1.88;0.75;;;;;;;12.96;100.00;95474.75;4956578;28;24465;-74
2023/08/28 01:14:50;;;;;;;1.45;0.80;;;;;;;13.07;100.00;95474.75;4956865;28;24441;-74
2023/08/28 01:17:18;;;;;;;3.30;0.82;;;;;;;13.13;100.00;95481.25;4963519;28;24640;-74
2023/08/28 01:19:45;;;;;;;1.30;0.80;;;;;;;13.20;100.00;95487.59;4952368;29;24787;-74
2023/08/28 01:22:23;;;;;;;1.63;0.68;;;;;;;13.23;100.00;95485.63;4967704;28;25003;-73
2023/08/28 01:24:51;;;;;;;1.10;0.80;;;;;;;13.27;100.00;95487.06;4957465;28;24473;-73
2023/08/28 01:27:21;;;;;;;3.72;1.10;;;;;;;13.29;100.00;95490.34;4963470;28;24508;-74
2023/08/28 01:30:07;;;;;;;1.50;0.82;;;;;;;13.35;100.00;95488.22;4964973;28;24433;-73
2023/08/28 01:32:33;;;;;;;2.83;0.70;;;;;;;13.37;100.00;95489.75;4955910;28;24442;-74
2023/08/28 01:35:03;;;;;;;3.25;0.90;;;;;;;13.45;100.00;95489.97;4971040;28;24441;-74
2023/08/28 01:37:40;;;;;;;1.17;0.88;;;;;;;13.45;100.00;95486.56;4970624;28;24433;-74
2023/08/28 01:40:09;;;;;;;1.08;0.80;;;;;;;13.35;100.00;95486.47;4971207;28;25015;-74
2023/08/28 01:42:37;;;;;;;1.27;0.70;;;;;;;13.28;100.00;95480.91;4952434;28;24997;-76
2023/08/28 01:45:05;;;;;;;7.95;0.93;;;;;;;13.26;100.00;95476.78;4952320;28;24441;-76
2023/08/28 01:47:32;;;;;;;3.38;0.80;;;;;;;13.25;100.00;95485.53;4952342;28;24775;-76
2023/08/28 01:49:59;;;;;;;3.58;1.00;;;;;;;13.28;100.00;95474.88;4952438;29;24421;-76
2023/08/28 01:52:25;;;;;;;1.05;0.57;;;;;;;13.28;100.00;95473.13;4968167;28;24438;-76
2023/08/28 01:54:52;;;;;;;2.67;0.70;;;;;;;13.29;100.00;95471.34;4952026;29;24432;-76
2023/08/28 01:57:18;;;;;;;5.93;1.17;;;;;;;13.51;100.00;95471.28;4959425;28;25011;-76
2023/08/28 01:59:46;;;;;;;1.50;0.93;;;;;;;13.63;100.00;95476.47;4971482;28;24429;-76
2023/08/28 02:02:12;;;;;;;2.70;0.95;;;;;;;13.36;100.00;95477.72;4956925;28;24446;-76
2023/08/28 02:04:38;;;;;;;0.95;0.80;;;;;;;13.17;100.00;95478.28;4966096;28;24448;-76
2023/08/28 02:07:05;;;;;;;2.60;0.82;;;;;;;13.10;100.00;95463.28;4965861;28;24453;-76
2023/08/28 02:09:32;;;;;;;1.15;0.82;;;;;;;13.04;100.00;95452.41;4960175;28;24437;-76
2023/08/28 02:11:59;;;;;;;6.57;1.02;;;;;;;12.88;100.00;95446.75;4959208;28;24482;-76
2023/08/28 02:14:25;;;;;;;3.25;0.90;;;;;;;12.75;100.00;95446.00;4966786;28;24445;-76
2023/08/28 02:16:53;;;;;;;1.93;0.80;;;;;;;12.74;100.00;95434.81;4960757;28;24442;-76
2023/08/28 02:19:19;;;;;;;10.43;1.20;;;;;;;12.58;100.00;95431.72;4951785;28;24441;-76
2023/08/28 02:21:46;;;;;;;5.80;1.25;;;;;;;12.44;100.00;95424.97;4968818;28;24441;-77
2023/08/28 02:24:12;;;;;;;3.08;1.00;;;;;;;12.33;100.00;95414.56;4970999;28;24549;-76
2023/08/28 02:26:39;;;;;;;1.48;0.98;;;;;;;12.38;100.00;95416.81;4970914;28;25011;-76
2023/08/28 02:29:06;;;;;;;3.55;1.05;;;;;;;12.30;100.00;95401.81;4971033;28;25011;-76
2023/08/28 02:31:32;;;;;;;4.25;1.35;;;;;;;12.28;100.00;95408.91;4954767;28;24441;-76
2023/08/28 02:34:00;;;;;;;1.92;1.00;;;;;;;12.25;100.00;95411.72;4951978;28;24451;-76
2023/08/28 02:36:27;;;;;;;2.65;0.95;;;;;;;12.31;100.00;95417.28;4951539;29;25000;-76
2023/08/28 02:38:53;;;;;;;1.92;0.85;;;;;;;12.48;100.00;95418.59;4951785;29;24426;-76
2023/08/28 02:41:20;;;;;;;2.88;0.88;;;;;;;12.59;100.00;95417.78;4951551;28;24949;-76
2023/08/28 02:43:46;;;;;;;1.38;0.82;;;;;;;12.66;100.00;95410.34;4953035;28;24442;-76
2023/08/28 02:46:12;;;;;;;1.63;0.80;;;;;;;12.77;100.00;95403.38;4971526;28;24454;-76
2023/08/28 02:48:39;;;;;;;2.75;0.90;;;;;;;12.86;100.00;95398.41;4975000;28;24421;-76
2023/08/28 02:51:07;;;;;;;3.42;0.90;;;;;;;12.94;100.00;95399.50;4962508;28;24449;-75
2023/08/28 02:53:33;;;;;;;3.40;1.10;;;;;;;12.98;100.00;95398.31;4955394;28;25009;-75
2023/08/28 02:56:24;;;;;;;2.03;0.90;;;;;;;13.00;100.00;95419.78;4957911;28;24423;-76
2023/08/28 02:58:51;;;;;;;2.42;1.13;;;;;;;12.97;100.00;95419.19;4965203;28;24496;-76
2023/08/28 03:01:18;;;;;;;1.88;0.93;;;;;;;12.96;100.00;95420.97;4966187;28;24862;-76
2023/08/28 03:03:45;;;;;;;0.80;0.70;;;;;;;13.01;100.00;95412.81;4974314;28;24436;-77
2023/08/28 03:06:13;;;;;;;3.88;0.98;;;;;;;13.05;100.00;95409.88;4970622;28;24874;-76
2023/08/28 03:08:40;;;;;;;1.80;0.80;;;;;;;13.06;100.00;95406.31;4954901;29;24498;-76
2023/08/28 03:11:06;;;;;;;1.60;0.90;;;;;;;13.07;100.00;95399.34;4954618;28;24990;-76
2023/08/28 03:13:33;;;;;;;0.75;0.63;;;;;;;13.07;100.00;95402.78;4969712;28;24820;-76
2023/08/28 03:16:00;;;;;;;2.30;0.90;;;;;;;13.13;100.00;95400.66;4973244;28;24440;-76
2023/08/28 03:18:26;;;;;;;1.73;1.15;;;;;;;13.13;100.00;95398.88;4968369;28;24485;-76
2023/08/28 03:20:53;;;;;;;2.00;0.82;;;;;;;13.14;100.00;95391.91;4955087;28;24461;-76
2023/08/28 03:23:20;;;;;;;1.90;0.87;;;;;;;13.20;100.00;95383.59;4954276;28;24446;-76
2023/08/28 03:25:47;;;;;;;2.15;1.00;;;;;;;13.20;100.00;95384.44;4970231;28;24441;-76
2023/08/28 03:28:13;;;;;;;3.45;0.98;;;;;;;13.23;100.00;95383.34;4972536;28;24837;-76
2023/08/28 03:30:40;;;;;;;1.38;0.93;;;;;;;13.19;100.00;95379.34;4966844;28;24546;-76
2023/08/28 03:33:07;;;;;;;1.15;0.90;;;;;;;13.21;100.00;95380.06;4962363;28;24461;-76
2023/08/28 03:35:34;;;;;;;2.55;0.90;;;;;;;13.19;100.00;95382.78;4962872;28;24544;-76
2023/08/28 03:38:01;;;;;;;2.05;0.70;;;;;;;13.14;100.00;95381.50;4961527;28;24430;-75
2023/08/28 03:40:28;;;;;;;1.55;0.70;;;;;;;13.12;100.00;95385.97;4963644;28;25003;-76
2023/08/28 03:42:55;;;;;;;1.30;0.70;;;;;;;13.14;100.00;95384.91;4964407;28;24449;-76
2023/08/28 03:45:22;;;;;;;1.83;0.85;;;;;;;13.00;100.00;95393.78;4962298;28;24437;-76
2023/08/28 03:47:48;;;;;;;1.10;0.70;;;;;;;12.95;100.00;95387.31;4963514;28;24541;-76
2023/08/28 03:50:15;;;;;;;1.95;1.00;;;;;;;13.11;100.00;95394.72;4961581;28;24437;-76
2023/08/28 03:52:41;;;;;;;1.30;0.98;;;;;;;12.99;100.00;95392.16;4961546;28;24449;-76
2023/08/28 03:55:08;;;;;;;2.25;0.80;;;;;;;12.87;100.00;95398.31;4965230;28;24437;-75
2023/08/28 03:57:36;;;;;;;1.17;1.00;;;;;;;12.74;100.00;95403.63;4963809;28;24433;-76
2023/08/28 04:00:07;;;;;;;1.60;0.70;;;;;;;12.83;100.00;95397.72;4960023;28;24438;-77
2023/08/28 04:02:34;;;;;;;1.40;0.75;;;;;;;12.88;100.00;95401.72;4966028;28;24524;-76
2023/08/28 04:05:04;;;;;;;1.95;0.90;;;;;;;12.86;100.00;95404.44;4973638;28;24492;-76
2023/08/28 04:07:31;;;;;;;1.63;0.80;;;;;;;12.91;100.00;95404.09;4960079;28;25020;-76
2023/08/28 04:09:58;;;;;;;1.70;0.80;;;;;;;12.87;100.00;95413.06;4954527;28;24426;-76
2023/08/28 04:12:24;;;;;;;3.17;0.80;;;;;;;12.86;100.00;95406.22;4967867;28;24457;-76
2023/08/28 04:14:52;;;;;;;1.40;0.60;;;;;;;12.85;100.00;95405.38;4962122;28;24433;-76
2023/08/28 04:17:18;;;;;;;4.65;0.82;;;;;;;12.94;100.00;95401.25;4962120;28;24450;-76
2023/08/28 04:19:45;;;;;;;2.53;0.60;;;;;;;12.98;100.00;95406.09;4968822;28;24845;-76
2023/08/28 04:22:12;;;;;;;3.20;0.70;;;;;;;13.01;100.00;95397.22;4971887;28;24440;-76
2023/08/28 04:24:38;;;;;;;1.92;0.70;;;;;;;12.93;100.00;95386.59;4972892;28;24461;-76
2023/08/28 04:27:05;;;;;;;2.80;0.70;;;;;;;12.79;100.00;95388.53;4972909;28;24453;-76
2023/08/28 04:29:32;;;;;;;0.60;0.50;;;;;;;12.72;100.00;95378.69;4972840;28;24448;-76
2023/08/28 04:31:59;;;;;;;0.98;0.50;;;;;;;12.76;100.00;95378.34;4972222;28;24952;-76
2023/08/28 04:34:26;;;;;;;0.55;0.43;;;;;;;12.72;100.00;95379.53;4969167;28;24438;-76
2023/08/28 04:36:52;;;;;;;0.85;0.40;;;;;;;12.66;100.00;95380.00;4969972;28;24983;-76
2023/08/28 04:39:20;;;;;;;1.20;0.65;;;;;;;12.72;100.00;95369.16;4981440;28;24440;-76
2023/08/28 04:41:46;;;;;;;1.63;0.80;;;;;;;12.77;100.00;95374.81;4957816;28;25056;-76
2023/08/28 04:44:13;;;;;;;1.40;0.70;;;;;;;12.77;100.00;95374.81;4953417;29;24434;-76
2023/08/28 04:46:39;;;;;;;0.63;0.50;;;;;;;12.80;100.00;95374.56;4959673;28;24469;-76
2023/08/28 04:49:07;;;;;;;3.20;0.63;;;;;;;12.79;100.00;95378.13;4965534;28;24448;-76
2023/08/28 04:51:34;;;;;;;1.45;0.65;;;;;;;12.82;100.00;95372.66;4959130;28;24438;-75
2023/08/28 04:54:00;;;;;;;0.50;0.50;;;;;;;12.70;100.00;95375.41;4952957;28;25013;-76
2023/08/28 04:56:27;;;;;;;2.05;0.65;;;;;;;12.40;100.00;95373.38;4953507;28;24430;-76
2023/08/28 04:58:53;;;;;;;1.80;0.53;;;;;;;12.25;100.00;95371.00;4955168;28;24969;-76
2023/08/28 05:01:20;;;;;;;1.00;0.60;;;;;;;12.38;100.00;95368.28;4972267;28;24410;-75
2023/08/28 05:03:46;;;;;;;8.68;0.70;;;;;;;12.49;100.00;95360.50;4953775;28;24442;-76
2023/08/28 05:06:14;;;;;;;2.53;0.77;;;;;;;12.56;100.00;95369.47;4956213;28;24438;-75
2023/08/28 05:08:41;;;;;;;2.25;0.60;;;;;;;12.64;100.00;95362.88;4952780;28;24426;-75
2023/08/28 05:11:07;;;;;;;0.60;0.45;;;;;;;12.54;100.00;95370.56;4959945;28;24444;-75
2023/08/28 05:13:33;;;;;;;1.27;0.70;;;;;;;12.63;100.00;95361.22;4971771;28;24789;-75
2023/08/28 05:16:00;;;;;;;1.47;0.60;;;;;;;12.63;100.00;95364.66;4972035;28;24471;-75
2023/08/28 05:18:27;;;;;;;3.20;0.60;;;;;;;12.56;100.00;95364.28;4968427;28;24445;-76
2023/08/28 05:20:53;;;;;;;0.90;0.50;;;;;;;12.63;100.00;95369.84;4952840;28;24461;-75
2023/08/28 05:23:25;;;;;;;3.38;0.90;;;;;;;12.54;100.00;95361.00;4952322;29;24533;-75
2023/08/28 05:25:51;;;;;;;1.23;0.68;;;;;;;12.44;100.00;95364.41;4968282;28;24492;-75
2023/08/28 05:28:18;;;;;;;2.20;0.80;;;;;;;12.30;100.00;95363.69;4954316;28;24985;-75
2023/08/28 05:30:44;;;;;;;1.33;0.60;;;;;;;12.38;100.00;95363.09;4972099;28;24418;-75
2023/08/28 05:33:11;;;;;;;1.15;0.63;;;;;;;12.41;100.00;95357.69;4971376;28;24414;-75
2023/08/28 05:35:38;;;;;;;1.45;0.70;;;;;;;12.47;100.00;95359.00;4969632;28;25023;-75
2023/08/28 05:38:05;;;;;;;3.05;0.50;;;;;;;12.65;100.00;95362.78;4967907;28;24438;-75
2023/08/28 05:40:32;;;;;;;2.58;0.70;;;;;;;12.66;100.00;95364.41;4952280;28;24461;-75
2023/08/28 05:42:59;;;;;;;2.20;0.50;;;;;;;12.64;100.00;95368.06;4962525;28;24472;-75
2023/08/28 05:45:26;;;;;;;1.05;0.40;;;;;;;12.60;100.00;95362.28;4970650;28;24442;-75
2023/08/28 05:47:52;;;;;;;1.08;0.50;;;;;;;12.55;100.00;95373.03;4954655;28;24453;-75
2023/08/28 05:50:19;;;;;;;0.40;0.38;;;;;;;12.57;100.00;95365.97;4965653;28;24457;-75
2023/08/28 05:52:45;;;;;;;0.63;0.50;;;;;;;12.52;100.00;95372.44;4957679;28;24445;-75
2023/08/28 05:55:12;;;;;;;0.93;0.60;;;;;;;12.47;100.00;95367.59;4956759;28;24798;-75
2023/08/28 05:57:41;;;;;;;1.00;0.70;;;;;;;12.52;100.00;95359.47;4953028;29;24425;-76
2023/08/28 06:00:09;;;;;;;1.60;0.70;;;;;;;12.60;100.00;95355.31;4957813;28;24528;-75
2023/08/28 06:02:35;;;;;;;1.30;0.60;;;;;;;12.81;100.00;95360.63;4972521;28;24444;-76
2023/08/28 06:05:02;;;;;;;1.20;0.60;;;;;;;12.89;100.00;95356.59;4972842;28;24934;-76
2023/08/28 06:07:29;;;;;;;0.73;0.68;;;;;;;12.75;100.00;95345.50;4973322;28;24458;-75
2023/08/28 06:09:56;;;;;;;3.00;0.80;;;;;;;12.75;100.00;95335.09;4957613;28;24529;-78
2023/08/28 06:12:22;;;;;;;2.57;0.87;;;;;;;12.77;100.00;95330.63;4952947;28;24446;-76
2023/08/28 06:14:50;;;;;;;2.90;0.80;;;;;;;12.80;100.00;95326.97;4952290;29;24466;-76
2023/08/28 06:17:17;;;;;;;1.00;0.67;;;;;;;12.87;100.00;95328.16;4961122;28;24452;-76
2023/08/28 06:19:44;;;;;;;3.33;0.73;;;;;;;12.60;100.00;95323.31;4971246;28;24425;-78
2023/08/28 06:22:10;;;;;;;0.97;0.87;;;;;;;12.36;100.00;95310.47;4975096;28;24422;-79
2023/08/28 06:24:37;;;;;;;5.20;1.00;;;;;;;12.15;100.00;95304.31;4959816;28;24623;-77
2023/08/28 06:27:03;;;;;;;1.70;0.90;;;;;;;12.22;100.00;95295.13;4956625;28;24450;-77
2023/08/28 06:29:30;;;;;;;1.75;1.00;;;;;;;12.19;100.00;95290.16;4956261;28;24941;-77
2023/08/28 06:31:58;;;;;;;2.03;1.17;;;;;;;12.15;100.00;95291.34;4955926;28;24409;-76
2023/08/28 06:34:25;;;;;;;1.73;1.15;;;;;;;12.07;100.00;95294.53;4957413;28;24417;-76
2023/08/28 06:36:52;;;;;;;4.57;1.02;;;;;;;12.27;100.00;95314.63;4963840;28;24511;-76
2023/08/28 06:39:19;;;;;;;2.03;1.30;;;;;;;12.29;100.00;95315.31;4955869;29;24445;-76
2023/08/28 06:41:45;;;;;;;3.30;1.17;;;;;;;12.54;100.00;95311.66;4957866;28;24991;-77
2023/08/28 06:44:12;;;;;;;3.55;1.08;;;;;;;12.76;100.00;95309.97;4978489;28;24420;-77
2023/08/28 06:46:39;;;;;;;2.10;1.13;;;;;;;12.82;100.00;95312.88;4972159;28;24481;-79
2023/08/28 06:49:07;;;;;;;4.45;1.48;;;;;;;12.97;100.00;95310.84;4969623;28;24473;-76
2023/08/28 06:51:33;;;;;;;5.82;1.48;;;;;;;13.05;100.00;95297.25;4959712;28;24445;-76
2023/08/28 06:54:00;;;;;;;2.25;1.10;;;;;;;13.03;100.00;95299.97;4966682;28;24453;-75
2023/08/28 06:56:26;;;;;;;3.42;1.33;;;;;;;13.02;100.00;95307.91;4955612;29;24430;-75
2023/08/28 06:58:53;;;;;;;1.65;1.13;;;;;;;12.91;100.00;95313.13;4962068;28;24448;-76
2023/08/28 07:01:19;;;;;;;2.40;1.33;;;;;;;12.84;100.00;95311.00;4971785;28;24840;-77
2023/08/28 07:03:46;;;;;;;3.57;1.60;;;;;;;12.76;100.00;95308.19;4963127;28;24457;-77
2023/08/28 07:06:13;;;;;;;7.72;1.80;;;;;;;12.66;100.00;95296.88;4955618;29;24426;-75
2023/08/28 07:08:40;;;;;;;3.77;1.37;;;;;;;12.65;100.00;95294.41;4955369;28;24514;-80
2023/08/28 07:11:06;;;;;;;3.17;1.67;;;;;;;12.70;100.00;95287.06;4970555;28;24444;-75
2023/08/28 07:13:33;;;;;;;2.08;1.48;;;;;;;12.80;100.00;95306.19;4958539;28;24449;-77
2023/08/28 07:16:01;;;;;;;2.90;1.40;;;;;;;12.96;100.00;95330.00;4974379;28;24448;-76
2023/08/28 07:18:28;;;;;;;2.23;1.33;;;;;;;13.02;100.00;95342.53;4974285;28;24452;-77
2023/08/28 07:20:54;;;;;;;2.53;1.50;;;;;;;13.16;100.00;95344.00;4968922;28;24504;-76
2023/08/28 07:23:24;;;;;;;2.75;1.45;;;;;;;13.13;100.00;95331.28;4971354;28;24993;-76
2023/08/28 07:25:51;;;;;;;4.95;1.33;;;;;;;13.10;100.00;95336.72;4973853;28;24515;-75
2023/08/28 07:28:19;;;;;;;2.80;1.35;;;;;;;13.26;100.00;95344.97;4965830;28;24453;-76
2023/08/28 07:30:45;;;;;;;3.92;1.60;;;;;;;12.99;100.00;95344.53;4966184;28;24981;-76
2023/08/28 07:33:12;;;;;;;3.15;2.00;;;;;;;12.95;100.00;95335.34;4974630;28;24426;-76
2023/08/28 07:35:42;;;;;;;2.50;1.80;;;;;;;12.92;100.00;95323.41;4974250;28;24430;-76
2023/08/28 07:38:09;;;;;;;2.95;1.42;;;;;;;12.88;100.00;95319.38;4974237;28;24956;-76
2023/08/28 07:40:37;;;;;;;4.15;1.65;;;;;;;12.99;100.00;95318.53;4960467;28;24465;-76
2023/08/28 07:43:04;;;;;;;4.10;1.67;;;;;;;13.05;100.00;95299.84;4967364;28;24449;-76
2023/08/28 07:45:31;;;;;;;2.83;1.20;;;;;;;13.00;100.00;95300.22;4955036;29;24419;-76
2023/08/28 07:47:59;;;;;;;3.17;1.40;;;;;;;13.18;100.00;95310.09;4957299;28;24452;-75
2023/08/28 07:50:25;;;;;;;2.55;1.42;;;;;;;13.31;100.00;95315.97;4974054;28;24440;-76
2023/08/28 07:52:52;;;;;;;2.07;1.53;;;;;;;13.46;100.00;95306.09;4973538;28;24473;-76
2023/08/28 07:55:18;;;;;;;3.92;1.92;;;;;;;13.39;100.00;95310.19;4973709;28;24420;-76
2023/08/28 07:57:46;;;;;;;2.95;1.50;;;;;;;13.35;100.00;95314.81;4973880;28;24417;-76
2023/08/28 08:00:15;;;;;;;2.40;1.48;;;;;;;13.40;100.00;95328.25;4973762;28;24432;-75
2023/08/28 08:02:42;;;;;;;4.27;1.60;;;;;;;13.44;100.00;95341.84;4973348;28;24445;-74
2023/08/28 08:05:10;;;;;;;4.85;1.92;;;;;;;13.52;100.00;95342.84;4959815;28;24453;-75
2023/08/28 08:07:37;;;;;;;2.47;1.40;;;;;;;13.63;100.00;95341.16;4974302;28;24496;-74
2023/08/28 08:10:05;;;;;;;2.80;1.77;;;;;;;13.94;100.00;95348.13;4958119;28;24534;-75
2023/08/28 08:12:32;;;;;;;2.25;1.50;;;;;;;13.79;100.00;95337.19;4972218;28;24779;-74
2023/08/28 08:15:00;;;;;;;4.03;1.88;;;;;;;13.63;100.00;95349.78;4955995;28;24846;-75
2023/08/28 08:17:26;;;;;;;4.18;1.70;;;;;;;13.55;100.00;95350.41;4960734;28;24779;-75
2023/08/28 08:19:54;;;;;;;4.05;1.38;;;;;;;13.55;100.00;95350.41;4957712;28;24458;-75
2023/08/28 08:22:20;;;;;;;2.67;1.65;;;;;;;13.51;100.00;95343.81;4964041;28;24450;-75
2023/08/28 08:24:47;;;;;;;5.25;1.50;;;;;;;13.48;100.00;95356.25;4954142;28;24418;-75
2023/08/28 08:27:13;;;;;;;6.43;2.10;;;;;;;13.53;100.00;95369.69;4953832;28;24770;-75
2023/08/28 08:29:40;;;;;;;3.72;1.65;;;;;;;13.61;100.00;95372.53;4953299;29;24449;-76
2023/08/28 08:32:08;;;;;;;3.13;1.77;;;;;;;13.80;100.00;95372.66;4966766;28;25015;-77
2023/08/28 08:34:34;;;;;;;3.60;1.80;;;;;;;13.85;100.00;95366.25;4970004;28;24430;-77
2023/08/28 08:37:01;;;;;;;2.78;1.55;;;;;;;13.89;100.00;95365.06;4962898;28;24446;-76
2023/08/28 08:39:27;;;;;;;4.05;1.50;;;;;;;13.76;100.00;95358.25;4974786;28;24421;-76
2023/08/28 08:41:55;;;;;;;2.67;1.73;;;;;;;13.97;100.00;95360.03;4973155;28;24813;-76
2023/08/28 08:44:21;;;;;;;2.38;1.50;;;;;;;13.85;100.00;95354.06;4972799;28;24746;-75
2023/08/28 08:46:49;;;;;;;3.90;1.60;;;;;;;13.67;100.00;95350.38;4973372;28;24957;-75
2023/08/28 08:49:20;;;;;;;1.70;1.58;;;;;;;13.61;100.00;95359.50;4973586;28;24504;-75
2023/08/28 08:51:50;;;;;;;2.47;1.40;;;;;;;13.68;100.00;95363.28;4953775;29;24508;-76
2023/08/28 08:54:21;;;;;;;2.70;1.50;;;;;;;13.91;100.00;95363.16;4954064;28;24481;-76
2023/08/28 08:56:50;;;;;;;3.50;1.40;;;;;;;13.98;100.00;95365.13;4966462;28;24993;-75
2023/08/28 08:59:18;;;;;;;9.13;1.67;;;;;;;13.94;100.00;95352.47;4967571;28;24438;-75
2023/08/28 09:01:44;;;;;;;4.88;1.80;;;;;;;13.78;100.00;95356.34;4972298;28;24417;-75
2023/08/28 09:04:12;;;;;;;10.13;1.83;;;;;;;13.77;100.00;95361.69;4959182;28;24448;-76
2023/08/28 09:06:41;;;;;;;3.05;1.55;;;;;;;13.75;100.00;95367.00;4972416;28;24437;-75
2023/08/28 09:09:11;;;;;;;4.57;2.05;;;;;;;14.09;100.00;95372.06;4958416;28;24465;-77
2023/08/28 09:11:40;;;;;;;5.15;1.85;;;;;;;14.25;100.00;95366.38;4964629;28;24437;-76
2023/08/28 09:14:06;;;;;;;3.00;2.05;;;;;;;14.16;100.00;95375.78;4969900;28;24456;-79
2023/08/28 09:16:34;;;;;;;5.95;2.05;;;;;;;14.22;100.00;95375.28;4953264;29;24425;-77
2023/08/28 09:19:01;;;;;;;3.20;2.42;;;;;;;14.42;100.00;95380.59;4953350;28;24434;-76
2023/08/28 09:21:28;;;;;;;3.90;2.28;;;;;;;14.49;100.00;95385.19;4952992;29;24476;-76
2023/08/28 09:23:56;;;;;;;3.17;2.10;;;;;;;14.39;100.00;95381.69;4958176;28;24476;-77
2023/08/28 09:26:23;;;;;;;4.07;2.17;;;;;;;14.32;100.00;95379.72;4972015;28;24429;-77
2023/08/28 09:28:59;;;;;;;3.90;2.40;;;;;;;14.38;100.00;95366.16;4972024;28;24446;-77
2023/08/28 09:31:28;;;;;;;3.75;2.00;;;;;;;14.36;100.00;95368.91;4955494;28;24557;-78
2023/08/28 09:33:55;;;;;;;3.60;1.80;;;;;;;14.23;100.00;95358.69;5015682;23;24742;-74
2023/08/28 09:36:21;;;;;;;6.63;2.40;;;;;;;14.15;100.00;95357.69;5004030;28;24444;-75
2023/08/28 09:38:48;;;;;;;3.20;2.08;;;;;;;14.12;100.00;95363.13;4991535;28;24445;-74
2023/08/28 09:41:16;;;;;;;4.00;2.40;;;;;;;14.07;100.00;95358.31;5003674;28;24439;-76
2023/08/28 09:43:43;;;;;;;2.25;2.03;;;;;;;14.06;100.00;95338.44;4992563;28;24437;-76
2023/08/28 09:46:09;;;;;;;3.85;2.30;;;;;;;14.10;100.00;95333.81;4973313;28;24968;-76
2023/08/28 09:48:36;;;;;;;3.53;2.30;;;;;;;14.09;100.00;95333.00;4973421;28;24450;-75
2023/08/28 09:51:04;;;;;;;3.95;2.08;;;;;;;14.10;100.00;95316.41;4984175;28;24436;-74
2023/08/28 09:53:31;;;;;;;3.35;2.22;;;;;;;14.00;100.00;95312.91;4989156;28;24491;-75
2023/08/28 09:55:58;;;;;;;4.80;2.10;;;;;;;14.09;100.00;95312.16;4984065;28;24437;-74
2023/08/28 09:58:27;;;;;;;3.10;1.88;;;;;;;14.19;100.00;95307.81;4984953;28;24429;-74
2023/08/28 10:00:56;;;;;;;4.83;1.83;;;;;;;14.14;100.00;95302.16;4972702;28;25026;-75
2023/08/28 10:03:23;;;;;;;3.25;2.00;;;;;;;14.23;100.00;95298.78;4978411;28;24453;-74
2023/08/28 10:05:52;;;;;;;2.83;2.05;;;;;;;14.39;100.00;95300.09;4973367;28;24816;-73
2023/08/28 10:08:19;;;;;;;6.25;2.00;;;;;;;14.38;100.00;95295.81;4972868;28;24902;-74
2023/08/28 10:10:47;;;;;;;3.63;1.98;;;;;;;14.62;100.00;95293.75;4973803;28;24995;-74
2023/08/28 10:13:16;;;;;;;2.55;1.80;;;;;;;14.62;100.00;95298.97;4976854;28;25023;-74
2023/08/28 10:15:52;;;;;;;3.10;2.08;;;;;;;14.57;100.00;95298.53;4983083;28;24436;-73
2023/08/28 10:18:25;;;;;;;6.10;2.13;;;;;;;14.58;100.00;95305.41;4986224;28;24432;-73
2023/08/28 10:20:52;;;;;;;3.45;1.80;;;;;;;14.70;100.00;95295.72;4990444;28;24419;-73
2023/08/28 10:23:21;;;;;;;2.75;1.70;;;;;;;14.63;100.00;95295.41;4989792;28;24793;-73
2023/08/28 10:25:50;;;;;;;2.33;1.58;;;;;;;14.72;100.00;95301.59;4988487;28;24952;-73
2023/08/28 10:28:18;;;;;;;2.05;1.40;;;;;;;14.89;100.00;95303.56;4987324;28;24460;-73
2023/08/28 10:30:48;;;;;;;3.22;1.35;;;;;;;15.05;100.00;95299.63;4985068;28;24512;-72
2023/08/28 10:33:15;;;;;;;3.70;1.45;;;;;;;14.98;100.00;95300.16;4970467;28;24449;-72
2023/08/28 10:35:43;;;;;;;3.10;1.25;;;;;;;15.05;100.00;95291.78;4978009;28;24428;-73
2023/08/28 10:38:11;;;;;;;2.40;1.33;;;;;;;15.13;100.00;95287.56;4983512;28;25059;-73
2023/08/28 10:40:38;;;;;;;3.55;1.58;;;;;;;15.07;100.00;95288.09;4970577;28;25034;-73
2023/08/28 10:43:06;;;;;;;2.00;1.20;;;;;;;15.19;100.00;95287.00;4970829;28;24441;-71
2023/08/28 10:45:36;;;;;;;2.15;1.13;;;;;;;15.22;100.00;95289.34;4972202;28;25011;-72
2023/08/28 10:48:04;;;;;;;2.90;1.20;;;;;;;15.26;100.00;95284.69;4987524;28;24444;-72
2023/08/28 10:50:35;;;;;;;1.50;1.10;;;;;;;15.48;100.00;95279.19;4979928;28;24561;-73
2023/08/28 10:53:02;;;;;;;2.17;1.20;;;;;;;15.49;100.00;95269.56;4970210;28;25097;-73
2023/08/28 10:55:28;;;;;;;4.33;1.10;;;;;;;15.60;100.00;95258.16;4974750;28;24446;-71
2023/08/28 10:57:55;;;;;;;3.45;1.20;;;;;;;15.41;100.00;95262.44;4974764;28;24522;-72
2023/08/28 11:00:22;;;;;;;2.22;1.27;;;;;;;15.31;100.00;95258.16;4978804;28;24441;-72
2023/08/28 11:03:08;;;;;;;2.45;0.95;;;;;;;15.52;100.00;95253.63;4979729;28;24848;-73
2023/08/28 11:05:35;;;;;;;1.55;0.90;;;;;;;15.63;100.00;95252.66;4986097;28;24528;-72
2023/08/28 11:08:04;;;;;;;5.57;1.17;;;;;;;15.63;100.00;95263.09;4985280;28;25011;-73
2023/08/28 11:10:31;;;;;;;2.22;1.00;;;;;;;15.39;100.00;95258.31;4983469;28;24515;-72
2023/08/28 11:13:02;;;;;;;2.80;1.08;;;;;;;15.34;100.00;95266.53;4981952;28;24801;-73
2023/08/28 11:15:31;;;;;;;2.58;1.10;;;;;;;15.71;100.00;95268.47;4980590;28;24439;-72
2023/08/28 11:18:28;;;;;;;2.10;0.90;;;;;;;15.78;100.00;95269.56;4982135;28;24436;-72
2023/08/28 11:20:56;;;;;;;0.98;0.80;;;;;;;16.04;100.00;95261.13;4982190;28;24523;-74
2023/08/28 11:23:24;;;;;;;3.38;0.90;;;;;;;15.68;100.00;95266.13;4983197;28;24525;-74
2023/08/28 11:25:51;;;;;;;1.30;1.00;;;;;;;15.73;100.00;95262.16;4979841;28;24441;-73